Time;durP1;ratioP1;P1;durP2;ratioP2;P2;SDS_P1;SDS_P2;PMS_P1;PMS_P2;Temp;Humidity;BMP_temperature;BMP_pressure;BME280_temperature;BME280_humidity;BME280_pressure;Samples;Min_cycle;Max_cycle;Signal;HPM_P1;HPM_P2
2022/05/03 00:00:43;;;;;;;6.85;4.20;;;;;;;8.65;52.76;100474.63;5093205;28;20026;-67
2022/05/03 00:03:14;;;;;;;8.23;3.78;;;;;;;8.49;52.59;100463.47;5092567;28;20063;-67
2022/05/03 00:05:52;;;;;;;9.10;4.22;;;;;;;8.39;52.93;100469.72;5075372;28;20124;-68
2022/05/03 00:08:41;;;;;;;6.70;4.05;;;;;;;8.31;53.66;100459.31;5092304;28;20036;-69
2022/05/03 00:11:24;;;;;;;7.40;3.50;;;;;;;8.25;53.36;100464.59;5091945;28;20024;-68
2022/05/03 00:14:20;;;;;;;8.13;4.47;;;;;;;8.33;53.70;100457.50;5092598;28;20039;-69
2022/05/03 00:16:49;;;;;;;10.55;4.40;;;;;;;8.30;53.17;100449.72;5092328;28;20446;-69
2022/05/03 00:19:15;;;;;;;11.95;4.93;;;;;;;8.28;53.08;100453.22;5092369;28;20032;-67
2022/05/03 00:21:41;;;;;;;11.77;5.50;;;;;;;8.22;53.27;100443.72;5094237;28;20049;-68
2022/05/03 00:24:07;;;;;;;11.85;5.22;;;;;;;8.08;53.70;100454.31;5079806;28;20059;-69
2022/05/03 00:26:33;;;;;;;9.48;4.88;;;;;;;8.21;53.40;100446.31;5097725;28;20478;-69
2022/05/03 00:28:59;;;;;;;8.07;4.72;;;;;;;8.18;53.68;100451.59;5079012;28;20038;-69
2022/05/03 00:31:26;;;;;;;7.88;4.43;;;;;;;8.22;53.69;100454.19;5096046;28;20032;-68
2022/05/03 00:33:53;;;;;;;8.77;4.65;;;;;;;8.28;53.62;100454.09;5095900;28;20047;-69
2022/05/03 00:36:19;;;;;;;9.60;4.82;;;;;;;8.32;53.54;100444.47;5095757;28;20032;-67
2022/05/03 00:38:44;;;;;;;13.45;6.05;;;;;;;8.29;53.85;100445.34;5097075;28;20024;-69
2022/05/03 00:41:17;;;;;;;8.85;4.82;;;;;;;8.29;54.03;100455.81;5096047;28;20028;-67
2022/05/03 00:43:52;;;;;;;11.83;4.80;;;;;;;8.17;54.51;100444.63;5095874;28;20056;-68
2022/05/03 00:46:22;;;;;;;9.00;4.90;;;;;;;8.11;54.81;100437.72;5095638;28;20287;-69
2022/05/03 00:48:48;;;;;;;8.10;4.57;;;;;;;8.10;55.00;100449.94;5096741;28;20544;-69
2022/05/03 00:51:18;;;;;;;6.93;4.43;;;;;;;8.06;55.09;100444.75;5096906;28;20028;-69
2022/05/03 00:53:46;;;;;;;7.05;3.95;;;;;;;8.03;55.38;100447.41;5096016;28;20395;-69
2022/05/03 00:56:35;;;;;;;5.82;3.83;;;;;;;8.02;56.44;100450.88;5095627;28;20027;-69
2022/05/03 00:59:12;;;;;;;7.57;3.90;;;;;;;7.89;56.62;100450.13;5084400;28;20185;-67
2022/05/03 01:02:08;;;;;;;7.00;4.03;;;;;;;7.87;56.91;100446.69;5095432;28;20036;-69
2022/05/03 01:05:03;;;;;;;7.28;4.28;;;;;;;7.71;58.46;100439.84;5095157;28;20052;-67
2022/05/03 01:07:34;;;;;;;7.15;3.35;;;;;;;7.86;56.34;100444.94;5095750;28;20067;-69
2022/05/03 01:10:25;;;;;;;8.30;4.03;;;;;;;7.82;57.78;100445.84;5095059;28;20024;-67
2022/05/03 01:13:01;;;;;;;9.00;4.90;;;;;;;7.72;57.88;100441.59;5095064;28;20490;-68
2022/05/03 01:15:32;;;;;;;5.40;3.65;;;;;;;7.73;57.44;100445.94;5094977;28;20031;-68
2022/05/03 01:18:22;;;;;;;7.93;4.45;;;;;;;7.77;57.79;100437.16;5095494;28;20024;-68
2022/05/03 01:21:32;;;;;;;7.80;3.88;;;;;;;7.74;57.81;100434.56;5096576;28;20036;-67
2022/05/03 01:24:00;;;;;;;6.32;3.95;;;;;;;7.89;56.01;100440.53;5095071;28;20032;-67
2022/05/03 01:26:38;;;;;;;7.95;4.00;;;;;;;7.87;56.45;100438.81;5095011;28;20141;-67
2022/05/03 01:29:21;;;;;;;8.05;3.42;;;;;;;7.80;57.16;100434.53;5096215;28;20111;-67
2022/05/03 01:31:47;;;;;;;5.43;3.13;;;;;;;7.83;56.08;100435.38;5094993;28;20081;-68
2022/05/03 01:34:18;;;;;;;11.25;4.30;;;;;;;7.78;56.99;100428.44;5095128;28;20490;-66
2022/05/03 01:37:01;;;;;;;7.07;4.22;;;;;;;7.82;57.17;100432.75;5094897;28;20066;-66
2022/05/03 01:40:00;;;;;;;6.07;3.38;;;;;;;7.77;57.01;100432.81;5094841;28;20040;-68
2022/05/03 01:42:41;;;;;;;6.25;3.38;;;;;;;7.71;57.13;100430.25;5096051;28;20460;-68
2022/05/03 01:45:09;;;;;;;8.32;3.53;;;;;;;7.92;55.91;100434.41;5094945;28;20123;-68
2022/05/03 01:47:43;;;;;;;5.30;3.00;;;;;;;8.01;56.03;100436.94;5095042;28;20061;-67
2022/05/03 01:50:19;;;;;;;5.85;3.28;;;;;;;7.91;56.19;100432.69;5094692;28;20024;-67
2022/05/03 01:52:59;;;;;;;6.10;3.75;;;;;;;7.80;57.44;100440.63;5094505;28;20028;-66
2022/05/03 01:56:03;;;;;;;5.53;3.60;;;;;;;7.76;57.31;100438.06;5094386;28;20472;-66
2022/05/03 01:58:42;;;;;;;7.53;4.25;;;;;;;7.73;57.03;100440.69;5086247;28;20044;-67
2022/05/03 02:01:45;;;;;;;6.30;3.38;;;;;;;7.64;57.97;100439.03;5077471;28;20028;-67
2022/05/03 02:04:30;;;;;;;6.65;3.45;;;;;;;7.57;57.09;100432.97;5084905;28;20092;-69
2022/05/03 02:07:14;;;;;;;6.50;3.30;;;;;;;7.63;57.53;100443.41;5095583;28;20035;-68
2022/05/03 02:10:10;;;;;;;6.43;3.80;;;;;;;7.65;57.81;100433.78;5094049;28;20028;-67
2022/05/03 02:12:37;;;;;;;7.22;3.65;;;;;;;7.64;56.73;100426.81;5095466;28;20035;-68
2022/05/03 02:15:11;;;;;;;9.35;3.88;;;;;;;7.64;56.97;100439.03;5060529;28;20032;-68
2022/05/03 02:17:56;;;;;;;7.78;4.00;;;;;;;7.59;57.99;100431.22;5077068;28;20028;-68
2022/05/03 02:20:50;;;;;;;5.90;4.35;;;;;;;7.48;58.39;100424.34;5094256;28;20369;-68
2022/05/03 02:23:41;;;;;;;8.05;3.75;;;;;;;7.50;58.50;100423.47;5094121;28;20500;-67
2022/05/03 02:26:35;;;;;;;8.32;4.10;;;;;;;7.56;57.91;100420.78;5095026;28;20456;-67
2022/05/03 02:29:11;;;;;;;4.80;3.25;;;;;;;7.51;57.86;100422.59;5095016;28;20036;-68
2022/05/03 02:31:51;;;;;;;7.55;3.83;;;;;;;7.48;57.95;100420.00;5095322;28;20063;-68
2022/05/03 02:34:35;;;;;;;9.07;3.40;;;;;;;7.41;58.72;100420.91;5094882;28;20047;-68
2022/05/03 02:37:14;;;;;;;5.40;3.72;;;;;;;7.44;58.63;100420.03;5094230;28;20081;-69
2022/05/03 02:39:51;;;;;;;5.93;3.30;;;;;;;7.41;58.23;100421.78;5093767;28;20028;-68
2022/05/03 02:42:18;;;;;;;7.70;3.85;;;;;;;7.49;57.47;100418.25;5094666;28;20028;-68
2022/05/03 02:44:46;;;;;;;10.68;4.18;;;;;;;7.47;57.59;100423.50;5076107;28;20051;-68
2022/05/03 02:47:42;;;;;;;5.88;3.83;;;;;;;7.44;58.39;100420.03;5076919;28;20028;-70
2022/05/03 02:50:18;;;;;;;6.68;3.47;;;;;;;7.45;57.88;100422.63;5094471;28;20032;-68
2022/05/03 02:53:03;;;;;;;7.30;3.60;;;;;;;7.56;57.58;100420.78;5091946;28;20032;-67
2022/05/03 02:55:50;;;;;;;6.38;3.58;;;;;;;7.64;57.88;100428.56;5093488;28;20069;-67
2022/05/03 02:58:31;;;;;;;7.28;3.50;;;;;;;7.67;57.44;100431.16;5092152;28;20106;-67
2022/05/03 03:04:01;;;;;;;4.93;3.20;;;;;;;7.64;57.51;100429.44;5094617;28;20085;-67
2022/05/03 03:06:31;;;;;;;4.50;3.20;;;;;;;7.56;58.41;100426.03;5093190;28;20024;-67
2022/05/03 03:08:58;;;;;;;7.50;3.50;;;;;;;7.50;57.92;100435.66;5094469;28;20031;-68
2022/05/03 03:11:35;;;;;;;6.30;4.10;;;;;;;7.51;57.80;100427.81;5093023;28;20044;-68
2022/05/03 03:14:23;;;;;;;5.85;3.63;;;;;;;7.39;59.54;100423.56;5094237;28;20114;-67
2022/05/03 03:17:10;;;;;;;6.18;3.65;;;;;;;7.30;59.22;100422.75;5093694;28;20039;-66
2022/05/03 03:19:38;;;;;;;4.82;3.03;;;;;;;7.34;58.76;100419.22;5092772;28;20032;-66
2022/05/03 03:22:12;;;;;;;4.72;3.40;;;;;;;7.42;58.38;100420.06;5093789;28;20328;-67
2022/05/03 03:24:39;;;;;;;5.07;3.00;;;;;;;7.35;58.82;100420.97;5092692;28;20070;-67
2022/05/03 03:27:09;;;;;;;6.18;3.67;;;;;;;7.36;59.73;100423.56;5075900;28;20028;-67
2022/05/03 03:29:38;;;;;;;10.82;3.40;;;;;;;7.40;59.45;100414.81;5092405;28;20027;-67
2022/05/03 03:32:06;;;;;;;7.53;3.70;;;;;;;7.46;59.06;100423.50;5092643;28;20063;-68
2022/05/03 03:34:33;;;;;;;4.85;3.30;;;;;;;7.53;58.78;100414.72;5093660;28;20051;-68
2022/05/03 03:37:02;;;;;;;5.15;3.25;;;;;;;7.66;58.57;100432.06;5075663;28;20077;-67
2022/05/03 03:39:30;;;;;;;4.55;3.33;;;;;;;7.72;58.66;100426.75;5076057;28;20067;-67
2022/05/03 03:41:59;;;;;;;4.43;3.10;;;;;;;7.78;58.61;100426.72;5092606;28;20132;-68
2022/05/03 03:44:25;;;;;;;6.82;3.75;;;;;;;7.87;58.46;100429.22;5092509;28;20024;-68
2022/05/03 03:46:50;;;;;;;5.65;3.38;;;;;;;7.94;58.39;100432.66;5093678;28;20042;-69
2022/05/03 03:49:16;;;;;;;4.93;3.13;;;;;;;8.17;57.88;100429.78;5092477;28;20086;-68
2022/05/03 03:51:42;;;;;;;4.18;3.10;;;;;;;7.99;58.40;100428.25;5073587;28;20144;-67
2022/05/03 03:54:08;;;;;;;5.82;3.30;;;;;;;8.06;58.37;100424.69;5074121;28;20119;-68
2022/05/03 03:56:34;;;;;;;5.55;3.42;;;;;;;8.13;58.42;100434.19;5073779;28;20123;-66
2022/05/03 03:59:02;;;;;;;6.30;3.97;;;;;;;7.99;58.97;100428.25;5075273;28;20040;-68
2022/05/03 04:01:28;;;;;;;5.82;3.80;;;;;;;8.01;58.70;100423.84;5093605;28;20070;-67
2022/05/03 04:03:54;;;;;;;4.72;3.42;;;;;;;8.13;58.39;100425.47;5092297;28;20036;-67
2022/05/03 04:06:20;;;;;;;7.88;3.20;;;;;;;8.16;58.60;100425.44;5075469;28;20128;-67
2022/05/03 04:08:45;;;;;;;5.32;3.60;;;;;;;8.24;58.59;100433.22;5093347;28;20036;-68
2022/05/03 04:11:16;;;;;;;6.95;3.38;;;;;;;8.31;58.54;100430.50;5093399;28;20036;-68
2022/05/03 04:13:43;;;;;;;5.95;4.05;;;;;;;8.18;59.40;100431.53;5059187;28;20127;-68
2022/05/03 04:16:09;;;;;;;6.95;3.40;;;;;;;8.29;58.67;100428.78;5092239;28;20036;-69
2022/05/03 04:18:44;;;;;;;7.20;3.65;;;;;;;8.42;58.29;100426.91;5093311;28;20032;-68
2022/05/03 04:21:17;;;;;;;6.63;3.53;;;;;;;8.51;58.40;100430.28;5092265;28;20078;-68
2022/05/03 04:23:48;;;;;;;6.78;3.50;;;;;;;8.69;57.75;100429.19;5092049;28;20111;-67
2022/05/03 04:26:13;;;;;;;7.10;4.18;;;;;;;8.66;57.81;100433.59;5093407;28;20032;-68
2022/05/03 04:28:39;;;;;;;6.68;4.07;;;;;;;8.68;58.19;100437.06;5093334;28;20115;-68
2022/05/03 04:31:05;;;;;;;5.65;3.65;;;;;;;8.83;57.39;100431.63;5092135;28;20032;-68
2022/05/03 04:33:31;;;;;;;7.47;3.90;;;;;;;8.68;58.24;100437.94;5075252;28;20043;-67
2022/05/03 04:35:57;;;;;;;6.38;4.00;;;;;;;8.67;58.29;100443.22;5091967;28;20387;-68
2022/05/03 04:38:22;;;;;;;9.80;4.10;;;;;;;8.73;58.07;100437.88;5092043;28;20036;-68
2022/05/03 04:40:47;;;;;;;8.82;4.40;;;;;;;8.79;58.11;100429.94;5075502;28;20434;-68
2022/05/03 04:43:16;;;;;;;6.43;4.35;;;;;;;8.71;58.79;100447.53;5093242;28;20421;-69
2022/05/03 04:45:42;;;;;;;7.05;3.85;;;;;;;8.82;57.76;100445.63;5092822;28;20067;-67
2022/05/03 04:48:08;;;;;;;7.63;3.90;;;;;;;8.93;57.61;100438.47;5091985;28;20060;-67
2022/05/03 04:50:35;;;;;;;7.50;4.22;;;;;;;9.19;56.99;100434.63;5092243;28;20075;-67
2022/05/03 04:53:00;;;;;;;7.72;3.90;;;;;;;9.24;56.91;100440.66;5093398;28;20036;-68
2022/05/03 04:55:27;;;;;;;7.70;4.40;;;;;;;9.17;57.53;100437.25;5093255;28;20036;-67
2022/05/03 04:58:01;;;;;;;8.02;4.40;;;;;;;9.17;58.30;100446.88;5092750;28;20035;-68
2022/05/03 05:00:27;;;;;;;7.35;3.97;;;;;;;9.32;57.20;100441.41;5093039;28;20043;-67
2022/05/03 05:02:52;;;;;;;6.60;3.70;;;;;;;9.67;56.28;100437.34;5091815;28;20032;-67
2022/05/03 05:05:18;;;;;;;7.07;4.13;;;;;;;9.72;56.10;100435.50;5074934;28;20049;-67
2022/05/03 05:07:43;;;;;;;6.80;4.10;;;;;;;9.80;55.86;100436.22;5092941;28;20478;-68
2022/05/03 05:10:24;;;;;;;5.43;3.97;;;;;;;9.82;55.95;100448.44;5077902;28;20471;-68
2022/05/03 05:12:50;;;;;;;6.13;3.92;;;;;;;9.97;55.69;100443.78;5080581;28;20189;-67
2022/05/03 05:15:16;;;;;;;8.32;4.05;;;;;;;9.98;55.71;100443.78;5095123;28;20169;-67
2022/05/03 05:17:42;;;;;;;6.63;3.45;;;;;;;10.02;55.79;100445.47;5095318;28;20130;-67
2022/05/03 05:20:08;;;;;;;7.03;3.47;;;;;;;10.14;55.37;100433.88;5095195;28;20463;-68
2022/05/03 05:22:33;;;;;;;5.25;3.38;;;;;;;10.20;55.29;100433.72;5096975;28;20035;-67
2022/05/03 05:24:58;;;;;;;6.63;3.80;;;;;;;10.34;55.07;100436.16;5095220;28;20375;-67
2022/05/03 05:27:24;;;;;;;6.50;4.30;;;;;;;10.41;54.92;100432.47;5095000;28;20032;-67
2022/05/03 05:29:49;;;;;;;4.00;3.20;;;;;;;10.59;54.45;100440.00;5096240;28;20040;-68
2022/05/03 05:32:15;;;;;;;5.80;3.05;;;;;;;10.64;54.63;100433.78;5095005;28;20127;-68
2022/05/03 05:34:41;;;;;;;5.32;3.83;;;;;;;10.79;54.25;100429.06;5095919;28;20115;-68
2022/05/03 05:37:07;;;;;;;5.22;2.88;;;;;;;10.95;53.59;100429.59;5096124;28;20028;-68
2022/05/03 05:39:32;;;;;;;5.45;3.28;;;;;;;11.09;53.55;100426.63;5096151;28;20119;-68
2022/05/03 05:42:01;;;;;;;5.97;2.92;;;;;;;11.33;52.88;100426.09;5095812;28;20032;-69
2022/05/03 05:44:27;;;;;;;6.57;3.40;;;;;;;11.44;52.97;100425.81;5094805;28;20123;-67
2022/05/03 05:46:52;;;;;;;5.45;3.30;;;;;;;11.48;52.94;100432.72;5077964;28;20131;-69
2022/05/03 05:49:18;;;;;;;5.03;3.60;;;;;;;11.52;52.70;100430.88;5077892;28;20526;-69
2022/05/03 05:51:45;;;;;;;4.40;3.17;;;;;;;11.58;52.71;100425.47;5077944;28;20035;-68
2022/05/03 05:54:11;;;;;;;5.93;3.22;;;;;;;11.58;53.00;100426.34;5094638;28;20105;-68
2022/05/03 05:56:37;;;;;;;7.55;3.35;;;;;;;11.74;52.78;100421.53;5093503;28;20024;-67
2022/05/03 05:59:07;;;;;;;5.72;3.22;;;;;;;11.92;52.39;100425.50;5095435;28;20043;-67
2022/05/03 06:01:40;;;;;;;6.57;3.60;;;;;;;11.91;52.75;100429.03;5094506;28;20048;-67
2022/05/03 06:04:06;;;;;;;4.60;3.00;;;;;;;12.01;52.23;100425.25;5094010;28;20034;-67
2022/05/03 06:06:32;;;;;;;6.65;2.75;;;;;;;12.20;51.90;100424.75;5095594;28;20388;-69
2022/05/03 06:09:02;;;;;;;5.80;3.10;;;;;;;12.42;51.79;100431.16;5095051;28;20456;-67
2022/05/03 06:11:29;;;;;;;4.88;2.88;;;;;;;12.55;51.42;100437.78;5077453;28;20036;-69
2022/05/03 06:13:54;;;;;;;5.53;3.20;;;;;;;12.79;50.99;100438.00;5094296;28;20105;-69
2022/05/03 06:16:20;;;;;;;6.25;2.97;;;;;;;12.58;51.61;100437.72;5094363;28;20410;-68
2022/05/03 06:18:46;;;;;;;9.93;3.42;;;;;;;12.62;51.48;100445.53;5095600;28;20028;-69
2022/05/03 06:21:11;;;;;;;4.82;3.38;;;;;;;12.60;51.88;100444.69;5094175;28;20118;-68
2022/05/03 06:23:37;;;;;;;5.18;2.85;;;;;;;12.87;51.21;100441.25;5094019;28;20039;-67
2022/05/03 06:26:07;;;;;;;5.13;3.08;;;;;;;12.90;51.14;100443.81;5094267;28;20332;-69
2022/05/03 06:28:32;;;;;;;6.68;3.33;;;;;;;13.33;50.46;100446.94;5094242;28;20031;-68
2022/05/03 06:30:58;;;;;;;5.80;3.00;;;;;;;13.51;50.21;100447.19;5095010;28;20032;-68
2022/05/03 06:33:23;;;;;;;6.22;3.40;;;;;;;13.60;50.15;100445.16;5095514;28;20456;-68
2022/05/03 06:35:49;;;;;;;4.10;2.65;;;;;;;14.04;49.01;100447.16;5094886;28;20361;-69
2022/05/03 06:38:15;;;;;;;4.60;3.05;;;;;;;14.79;47.66;100446.22;5094969;28;20031;-68
2022/05/03 06:40:41;;;;;;;6.32;3.45;;;;;;;14.94;47.35;100442.16;5094677;28;20039;-68
2022/05/03 06:43:07;;;;;;;7.45;4.07;;;;;;;15.06;47.42;100449.59;5094880;28;20039;-68
2022/05/03 06:45:33;;;;;;;9.45;4.03;;;;;;;15.27;46.98;100440.81;5076721;28;20035;-68
2022/05/03 06:48:00;;;;;;;9.40;3.80;;;;;;;15.23;47.14;100447.16;5076664;28;20115;-68
2022/05/03 06:50:26;;;;;;;5.93;2.97;;;;;;;15.27;47.04;100450.53;5094577;28;20036;-67
2022/05/03 06:52:51;;;;;;;6.97;3.30;;;;;;;15.71;46.23;100446.09;5092876;28;20039;-68
2022/05/03 06:55:16;;;;;;;8.73;3.90;;;;;;;15.86;45.89;100443.75;5093504;28;20474;-68
2022/05/03 06:57:42;;;;;;;7.28;3.72;;;;;;;15.85;45.99;100450.84;5093262;28;20417;-68
2022/05/03 07:00:08;;;;;;;7.55;3.97;;;;;;;15.77;46.14;100467.06;5094563;28;20120;-68
2022/05/03 07:02:34;;;;;;;5.30;3.53;;;;;;;15.79;46.21;100448.44;5092307;28;20054;-68
2022/05/03 07:05:01;;;;;;;5.53;3.60;;;;;;;15.75;46.41;100453.00;5091603;28;20650;-68
2022/05/03 07:07:27;;;;;;;8.20;3.90;;;;;;;16.24;45.63;100458.00;5091645;28;20131;-67
2022/05/03 07:09:53;;;;;;;5.20;4.15;;;;;;;16.06;45.96;100464.94;5091757;28;20551;-68
2022/05/03 07:12:19;;;;;;;6.88;4.30;;;;;;;15.98;46.15;100469.72;5093397;28;20032;-68
2022/05/03 07:14:44;;;;;;;6.45;4.10;;;;;;;15.94;46.41;100463.69;5093887;28;20032;-68
2022/05/03 07:22:45;;;;;;;6.25;4.47;;;;;;;15.97;46.41;100466.22;5093880;28;20028;-68
2022/05/03 07:22:48;;;;;;;6.85;5.25;;;;;;;15.82;46.96;100473.94;5094153;28;20047;-68
2022/05/03 07:25:17;;;;;;;11.18;5.32;;;;;;;16.20;45.88;100470.53;5093247;28;20028;-68
2022/05/03 07:27:46;;;;;;;9.55;4.88;;;;;;;16.37;45.57;100479.53;5076371;28;20486;-68
2022/05/03 07:30:13;;;;;;;8.55;5.03;;;;;;;16.54;45.26;100470.81;5075820;28;20089;-68
2022/05/03 07:32:39;;;;;;;7.50;4.93;;;;;;;16.29;45.55;100479.00;5093569;28;20031;-69
2022/05/03 07:35:04;;;;;;;7.47;4.80;;;;;;;16.16;46.02;100484.84;5092745;28;20115;-68
2022/05/03 07:37:30;;;;;;;7.63;4.90;;;;;;;16.33;45.39;100485.91;5094139;28;20048;-68
2022/05/03 07:39:55;;;;;;;7.65;3.97;;;;;;;16.53;45.09;100490.34;5093830;28;20448;-68
2022/05/03 07:42:21;;;;;;;5.72;4.07;;;;;;;16.47;44.41;100491.44;5092603;28;20028;-68
2022/05/03 07:44:46;;;;;;;9.13;4.38;;;;;;;16.51;44.51;100493.88;5075708;28;20040;-67
2022/05/03 07:47:11;;;;;;;7.35;4.40;;;;;;;16.51;44.29;100487.72;5093659;28;20035;-68
2022/05/03 07:49:37;;;;;;;4.60;3.42;;;;;;;16.84;44.25;100496.00;5092397;28;20383;-69
2022/05/03 07:52:05;;;;;;;5.93;4.20;;;;;;;16.81;43.50;100496.16;5059143;28;20028;-68
2022/05/03 07:54:31;;;;;;;7.18;3.50;;;;;;;16.89;43.62;100498.44;5075018;28;20522;-68
2022/05/03 07:56:57;;;;;;;7.32;3.63;;;;;;;16.96;43.48;100495.44;5092735;28;20093;-69
2022/05/03 07:59:25;;;;;;;8.18;3.80;;;;;;;16.91;43.44;100505.38;5075529;28;20039;-68
2022/05/03 08:01:55;;;;;;;5.78;3.88;;;;;;;17.35;41.95;100497.13;5091905;28;20040;-68
2022/05/03 08:04:21;;;;;;;7.32;4.00;;;;;;;17.39;42.39;100501.38;5093533;28;20472;-68
2022/05/03 08:06:46;;;;;;;7.72;3.28;;;;;;;17.34;42.61;100499.88;5075864;28;20035;-67
2022/05/03 08:09:12;;;;;;;5.25;3.70;;;;;;;17.37;42.81;100503.25;5092394;28;20395;-67
2022/05/03 08:11:37;;;;;;;5.53;3.92;;;;;;;17.56;42.35;100505.91;5093372;28;20054;-67
2022/05/03 08:14:04;;;;;;;5.93;3.97;;;;;;;18.05;41.81;100513.25;5091998;28;20487;-68
2022/05/03 08:16:31;;;;;;;7.70;4.03;;;;;;;17.46;42.62;100507.25;5092255;28;20135;-69
2022/05/03 08:18:57;;;;;;;5.20;3.70;;;;;;;17.37;43.30;100497.94;5092254;28;20039;-69
2022/05/03 08:21:23;;;;;;;6.13;3.95;;;;;;;17.46;42.58;100516.09;5075631;28;20032;-69
2022/05/03 08:23:49;;;;;;;6.78;3.92;;;;;;;18.05;41.81;100502.63;5092447;28;20042;-69
2022/05/03 08:26:15;;;;;;;6.43;3.55;;;;;;;17.84;42.10;100505.44;5075210;28;20032;-68
2022/05/03 08:28:42;;;;;;;7.18;4.03;;;;;;;17.63;42.67;100511.75;5074920;28;20051;-69
2022/05/03 08:31:08;;;;;;;10.10;5.30;;;;;;;17.81;42.38;100518.88;5075640;28;20032;-69
2022/05/03 08:33:34;;;;;;;11.07;5.90;;;;;;;17.84;42.11;100526.69;5075210;28;20029;-69
2022/05/03 08:36:00;;;;;;;8.80;4.85;;;;;;;18.09;40.99;100509.50;5092159;28;20046;-68
2022/05/03 08:43:54;;;;;;;6.22;4.40;;;;;;;18.39;40.35;100512.38;5093749;28;20035;-69
2022/05/03 08:46:21;;;;;;;11.30;5.13;;;;;;;18.30;40.68;100519.03;5096243;28;20384;-68
2022/05/03 08:48:52;;;;;;;9.35;4.18;;;;;;;18.30;40.06;100524.34;5097215;28;20039;-68
2022/05/03 08:51:21;;;;;;;7.18;3.78;;;;;;;18.36;40.12;100537.34;5095915;28;20117;-68
2022/05/03 08:53:47;;;;;;;9.25;4.40;;;;;;;18.56;40.02;100531.00;5078893;28;20055;-68
2022/05/03 08:56:17;;;;;;;8.90;5.30;;;;;;;18.34;40.33;100527.72;5058781;28;20472;-69
2022/05/03 08:58:43;;;;;;;6.72;4.80;;;;;;;18.25;40.36;100521.09;5054207;28;20369;-68
2022/05/03 09:01:10;;;;;;;9.90;5.20;;;;;;;18.59;40.03;100535.28;5056511;28;20048;-68
2022/05/03 09:03:37;;;;;;;7.15;3.63;;;;;;;18.34;40.47;100525.91;5054046;28;20037;-67
2022/05/03 09:06:04;;;;;;;10.30;6.13;;;;;;;18.64;40.22;100522.63;5054707;28;20056;-69
2022/05/03 09:08:31;;;;;;;8.20;5.28;;;;;;;18.77;39.76;100531.69;5038622;28;20036;-68
2022/05/03 09:10:57;;;;;;;9.15;5.65;;;;;;;18.74;39.70;100533.66;5056138;28;20121;-69
2022/05/03 09:13:26;;;;;;;6.30;4.68;;;;;;;19.03;38.76;100524.09;5054991;28;20064;-68
2022/05/03 09:15:55;;;;;;;6.82;4.60;;;;;;;19.24;38.56;100524.75;5056176;28;20037;-69
2022/05/03 09:18:25;;;;;;;7.07;4.47;;;;;;;19.39;38.02;100534.56;5054964;28;20064;-69
2022/05/03 09:23:50;;;;;;;6.50;3.53;;;;;;;19.24;37.90;100538.94;5056147;28;20031;-69
2022/05/03 09:26:19;;;;;;;4.82;3.13;;;;;;;19.06;37.38;100518.63;5057607;28;20060;-69
2022/05/03 09:28:46;;;;;;;5.75;3.55;;;;;;;19.11;37.89;100548.50;5058334;28;20051;-70
2022/05/03 09:31:12;;;;;;;5.75;3.40;;;;;;;18.63;38.39;100536.84;5075663;28;20040;-68
2022/05/03 09:33:44;;;;;;;6.57;3.65;;;;;;;18.37;38.36;100535.56;5075722;28;20036;-69
2022/05/03 09:36:11;;;;;;;5.80;3.50;;;;;;;18.46;38.86;100530.59;5074707;28;20479;-68
2022/05/03 09:38:47;;;;;;;7.50;2.97;;;;;;;18.12;39.19;100527.97;5074794;28;20361;-70
2022/05/03 09:41:17;;;;;;;5.25;3.35;;;;;;;18.48;38.88;100549.16;5041344;28;20147;-68
2022/05/03 09:44:09;;;;;;;6.32;3.83;;;;;;;18.37;38.66;100538.22;5057765;28;20032;-69
2022/05/03 09:46:54;;;;;;;5.03;3.15;;;;;;;18.72;38.39;100535.56;5074494;28;20037;-68
2022/05/03 09:49:33;;;;;;;5.32;3.00;;;;;;;19.24;38.01;100540.72;5041479;28;20483;-69
2022/05/03 09:51:58;;;;;;;5.72;3.30;;;;;;;19.33;38.05;100543.72;5073401;28;20082;-68
2022/05/03 09:54:24;;;;;;;8.23;3.80;;;;;;;19.51;37.66;100540.97;5055989;28;20037;-68
2022/05/03 09:56:53;;;;;;;6.38;3.30;;;;;;;19.49;37.56;100556.22;5075157;28;20051;-68
2022/05/03 09:59:19;;;;;;;6.40;3.65;;;;;;;19.44;37.65;100529.81;5074358;28;20048;-68
2022/05/03 10:01:45;;;;;;;6.00;3.30;;;;;;;19.17;38.08;100537.53;5075421;28;20067;-70
2022/05/03 10:04:12;;;;;;;4.55;3.00;;;;;;;19.11;37.89;100535.19;5073590;28;20131;-68
2022/05/03 10:06:38;;;;;;;8.73;3.45;;;;;;;18.93;38.54;100542.38;5074093;28;20056;-68
2022/05/03 10:09:04;;;;;;;4.53;3.00;;;;;;;18.66;38.67;100550.84;5057926;28;20510;-68
2022/05/03 10:11:32;;;;;;;5.20;3.08;;;;;;;18.42;39.05;100539.69;5057554;28;20097;-69
2022/05/03 10:13:57;;;;;;;5.38;2.85;;;;;;;17.90;39.74;100550.28;5057964;28;20452;-68
2022/05/03 10:22:01;;;;;;;6.03;3.22;;;;;;;17.84;39.90;100557.72;5075416;28;20471;-69
2022/05/03 10:24:27;;;;;;;6.72;3.58;;;;;;;18.03;40.13;100553.19;5073692;28;20040;-68
2022/05/03 10:26:54;;;;;;;7.00;3.13;;;;;;;18.07;40.32;100559.22;5074173;28;20036;-68
2022/05/03 10:29:25;;;;;;;6.05;3.05;;;;;;;18.16;40.56;100549.00;5074888;28;20074;-69
2022/05/03 10:32:06;;;;;;;10.60;3.00;;;;;;;18.27;40.73;100558.22;5074661;28;20365;-68
2022/05/03 10:34:53;;;;;;;3.72;2.97;;;;;;;18.17;40.59;100574.66;5073586;28;20058;-68
2022/05/03 10:37:28;;;;;;;6.97;3.33;;;;;;;18.16;40.81;100586.25;5074558;28;20115;-67
2022/05/03 10:39:55;;;;;;;5.78;2.80;;;;;;;18.43;40.21;100559.16;5073563;28;20038;-68
2022/05/03 10:42:31;;;;;;;4.60;2.63;;;;;;;18.23;41.20;100565.50;5074557;28;20036;-69
2022/05/03 10:44:57;;;;;;;4.82;2.65;;;;;;;18.38;40.99;100569.19;5056760;28;20122;-68
2022/05/03 10:47:49;;;;;;;5.07;2.20;;;;;;;18.78;40.54;100578.66;5073023;28;20028;-68
2022/05/03 10:50:17;;;;;;;2.85;2.20;;;;;;;18.35;41.30;100572.88;5074417;28;20460;-68
2022/05/03 10:53:07;;;;;;;5.20;1.92;;;;;;;18.29;41.58;100578.50;5074682;28;20452;-69
2022/05/03 10:55:56;;;;;;;3.40;1.80;;;;;;;18.88;40.41;100585.22;5073327;28;20089;-68
2022/05/03 10:58:28;;;;;;;3.85;1.40;;;;;;;18.89;40.65;100578.97;5072248;28;20444;-68
2022/05/03 11:01:20;;;;;;;3.75;1.27;;;;;;;19.14;40.03;100583.81;5072933;28;20032;-69
2022/05/03 11:03:48;;;;;;;1.77;1.10;;;;;;;18.99;39.73;100576.69;5072135;28;20044;-68
2022/05/03 11:06:17;;;;;;;2.28;1.63;;;;;;;18.85;40.29;100584.53;5070793;28;20037;-68
2022/05/03 11:08:59;;;;;;;2.45;1.70;;;;;;;18.83;40.53;100581.97;5073384;28;20054;-69
2022/05/03 11:11:39;;;;;;;3.20;1.63;;;;;;;18.66;41.49;100581.94;5072296;28;20045;-68
2022/05/03 11:14:15;;;;;;;3.78;2.15;;;;;;;18.77;41.16;100584.94;5072516;28;20116;-69
2022/05/03 11:16:40;;;;;;;2.40;1.98;;;;;;;18.33;42.16;100580.06;5073788;28;20051;-68
2022/05/03 11:19:14;;;;;;;3.65;2.00;;;;;;;18.49;42.39;100584.63;5072651;28;20111;-68
2022/05/03 11:21:41;;;;;;;2.72;2.00;;;;;;;18.39;42.47;100585.09;5072452;28;20029;-68
2022/05/03 11:24:17;;;;;;;6.10;2.60;;;;;;;17.73;44.01;100598.06;5073725;28;20487;-68
2022/05/03 11:26:43;;;;;;;5.55;3.47;;;;;;;17.70;43.99;100595.56;5072820;28;20032;-70
2022/05/03 11:29:12;;;;;;;4.75;2.50;;;;;;;17.40;44.48;100593.41;5072505;28;20044;-69
2022/05/03 11:31:38;;;;;;;6.88;3.00;;;;;;;17.31;45.00;100608.91;5072624;28;20120;-69
2022/05/03 11:34:06;;;;;;;4.55;3.15;;;;;;;17.15;45.64;100603.44;5072698;28;20064;-68
2022/05/03 11:36:32;;;;;;;5.30;3.10;;;;;;;17.75;44.51;100601.53;5073014;28;20052;-69
2022/05/03 11:39:00;;;;;;;5.15;2.92;;;;;;;18.08;43.96;100604.38;5056202;28;20031;-68
2022/05/03 11:41:28;;;;;;;4.72;2.70;;;;;;;17.85;44.72;100600.16;5072774;28;20059;-70
2022/05/03 11:43:54;;;;;;;8.15;3.10;;;;;;;17.79;44.71;100597.78;5055826;28;20029;-69
2022/05/03 11:46:20;;;;;;;5.72;3.50;;;;;;;17.88;44.65;100591.19;5073462;28;20040;-69
2022/05/03 11:48:53;;;;;;;6.05;2.95;;;;;;;17.93;45.12;100592.69;5072276;28;20032;-69
2022/05/03 11:57:09;;;;;;;3.83;2.63;;;;;;;18.05;44.62;100588.56;5073209;28;20039;-68
2022/05/03 11:59:34;;;;;;;6.13;2.67;;;;;;;18.26;44.32;100586.63;5073360;28;20029;-69
2022/05/03 12:02:28;;;;;;;4.03;2.70;;;;;;;18.33;44.62;100604.00;5055479;28;20089;-68
2022/05/03 12:05:12;;;;;;;3.95;3.15;;;;;;;18.19;44.58;100593.19;5072169;28;20057;-69
2022/05/03 12:07:39;;;;;;;4.22;2.63;;;;;;;18.22;44.66;100601.00;5072215;28;20098;-68
2022/05/03 12:10:15;;;;;;;4.93;2.90;;;;;;;18.05;45.36;100598.34;5038939;28;20380;-69
2022/05/03 12:12:43;;;;;;;4.13;2.83;;;;;;;18.02;45.43;100606.47;5072023;28;20032;-69